Time;durP1;ratioP1;P1;durP2;ratioP2;P2;SDS_P1;SDS_P2;PMS_P1;PMS_P2;Temp;Humidity;BMP_temperature;BMP_pressure;BME280_temperature;BME280_humidity;BME280_pressure;Samples;Min_cycle;Max_cycle;Signal;HPM_P1;HPM_P2
2023/03/03 00:01:19;;;;;;;141.50;56.60;;;;;;;0.97;77.39;100799.70;130370;1256;114769;-69
2023/03/03 00:04:21;;;;;;;134.50;55.90;;;;;;;0.97;77.11;100800.94;130258;1261;114900;-69
2023/03/03 00:07:23;;;;;;;154.20;57.10;;;;;;;0.97;77.24;100803.41;130379;1257;114772;-68
2023/03/03 00:10:26;;;;;;;132.00;55.10;;;;;;;0.97;77.42;100803.75;130395;1253;115762;-68
2023/03/03 00:13:30;;;;;;;136.90;57.50;;;;;;;0.96;77.36;100807.45;130406;1269;114724;-69
2023/03/03 00:16:39;;;;;;;106.70;41.40;;;;;;;0.95;77.52;100808.50;130319;1253;129182;-68
2023/03/03 00:19:46;;;;;;;126.70;53.20;;;;;;;0.95;77.48;100819.77;130385;1257;115203;-68
2023/03/03 00:22:48;;;;;;;140.60;52.10;;;;;;;0.94;77.83;100824.33;130304;1256;114746;-68
2023/03/03 00:25:52;;;;;;;128.40;51.30;;;;;;;0.89;77.58;100826.45;130323;1276;114862;-68
2023/03/03 00:28:55;;;;;;;133.20;53.50;;;;;;;0.87;77.40;100826.63;130296;1257;114802;-68
2023/03/03 00:32:24;;;;;;;124.10;69.00;;;;;;;0.83;77.46;100824.88;129922;1260;127817;-69
2023/03/03 00:35:37;;;;;;;129.50;50.50;;;;;;;0.79;77.57;100818.19;130236;1259;114684;-69
2023/03/03 00:38:39;;;;;;;117.30;51.20;;;;;;;0.75;77.48;100812.39;130203;1254;114694;-68
2023/03/03 00:41:42;;;;;;;114.60;48.00;;;;;;;0.73;77.80;100815.22;130094;1257;115377;-69
2023/03/03 00:44:48;;;;;;;117.60;51.20;;;;;;;0.70;77.37;100813.63;130231;1257;115048;-67
2023/03/03 00:47:50;;;;;;;115.60;47.30;;;;;;;0.68;77.68;100810.81;130319;1254;114763;-68
2023/03/03 00:50:55;;;;;;;104.40;45.60;;;;;;;0.66;77.82;100809.06;130096;1278;114756;-69
2023/03/03 00:53:58;;;;;;;75.60;31.30;;;;;;;0.63;77.92;100806.78;130197;1278;114785;-68
2023/03/03 00:57:00;;;;;;;106.70;40.70;;;;;;;0.60;77.91;100802.73;130189;1259;114768;-69
2023/03/03 01:00:04;;;;;;;90.90;42.90;;;;;;;0.55;77.90;100797.46;130142;1258;114744;-69
2023/03/03 01:03:08;;;;;;;92.10;41.60;;;;;;;0.52;77.91;100793.60;130137;1278;114751;-69
2023/03/03 01:06:11;;;;;;;85.60;43.60;;;;;;;0.49;77.72;100794.31;129830;1278;127005;-69
2023/03/03 01:09:14;;;;;;;89.40;42.60;;;;;;;0.49;78.11;100791.67;130249;1278;115306;-68
2023/03/03 01:12:16;;;;;;;94.20;43.60;;;;;;;0.50;77.94;100787.98;130154;1259;114738;-68
2023/03/03 01:15:18;;;;;;;93.50;44.60;;;;;;;0.51;77.86;100780.94;130127;1270;114830;-68
2023/03/03 01:18:21;;;;;;;95.50;46.00;;;;;;;0.51;77.84;100776.73;130204;1278;114843;-68
2023/03/03 01:21:23;;;;;;;106.30;46.80;;;;;;;0.53;78.12;100770.05;130217;1259;114740;-68
2023/03/03 01:24:26;;;;;;;101.00;44.70;;;;;;;0.54;77.98;100762.85;129958;1259;224636;-69
2023/03/03 01:27:29;;;;;;;101.50;45.20;;;;;;;0.55;78.11;100761.79;130216;1271;114709;-68
2023/03/03 01:30:31;;;;;;;110.70;48.00;;;;;;;0.57;78.22;100759.16;130333;1259;114737;-69
2023/03/03 01:33:35;;;;;;;99.30;45.70;;;;;;;0.59;78.28;100755.81;130399;1257;114738;-68
2023/03/03 01:36:37;;;;;;;86.60;43.60;;;;;;;0.60;78.08;100752.65;130395;1256;115113;-68
2023/03/03 01:39:40;;;;;;;91.30;44.60;;;;;;;0.63;78.26;100745.27;130401;1257;116205;-69
2023/03/03 01:42:42;;;;;;;96.80;48.00;;;;;;;0.66;78.29;100744.02;130310;1256;130447;-68
2023/03/03 01:46:04;;;;;;;111.00;49.60;;;;;;;0.68;78.19;100742.08;130275;1267;114737;-68
2023/03/03 01:49:13;;;;;;;114.70;48.00;;;;;;;0.68;77.84;100742.27;130069;1254;114816;-67
2023/03/03 01:52:35;;;;;;;112.30;49.90;;;;;;;0.67;78.02;100736.30;130525;1256;114671;-68
2023/03/03 01:55:39;;;;;;;120.10;49.20;;;;;;;0.68;78.23;100735.22;130378;1256;114719;-68
2023/03/03 01:58:56;;;;;;;110.30;47.70;;;;;;;0.71;78.29;100730.30;130181;1254;114823;-68
2023/03/03 02:01:58;;;;;;;112.90;49.00;;;;;;;0.73;78.39;100726.61;130112;1261;116589;-68
2023/03/03 02:05:00;;;;;;;104.00;50.60;;;;;;;0.74;78.41;100725.38;130298;1257;114830;-67
2023/03/03 02:08:03;;;;;;;100.60;46.50;;;;;;;0.76;78.46;100730.82;130310;1259;115151;-68
2023/03/03 02:11:05;;;;;;;103.80;47.40;;;;;;;0.77;78.38;100730.46;130226;1260;114645;-68
2023/03/03 02:14:09;;;;;;;107.60;48.40;;;;;;;0.77;78.41;100720.79;130237;1259;114874;-68
2023/03/03 02:17:12;;;;;;;95.90;44.70;;;;;;;0.77;78.26;100715.17;130311;1255;128811;-68
2023/03/03 02:20:29;;;;;;;101.30;47.20;;;;;;;0.77;78.27;100708.30;130246;1256;115304;-67
2023/03/03 02:23:44;;;;;;;105.10;47.90;;;;;;;0.79;78.50;100710.42;130275;1269;114633;-69
2023/03/03 02:26:47;;;;;;;106.70;48.10;;;;;;;0.80;78.19;100717.98;130294;1253;114718;-68
2023/03/03 02:29:49;;;;;;;96.80;47.60;;;;;;;0.79;78.70;100724.30;130151;1254;114725;-67
2023/03/03 02:32:51;;;;;;;98.20;46.90;;;;;;;0.75;78.26;100721.50;130279;1254;114753;-68
2023/03/03 02:35:53;;;;;;;93.20;44.00;;;;;;;0.75;78.22;100725.02;130351;1254;114805;-68
2023/03/03 02:39:22;;;;;;;99.20;46.50;;;;;;;0.73;78.16;100727.31;130247;1276;115196;-69
2023/03/03 02:42:28;;;;;;;95.50;44.90;;;;;;;0.73;78.43;100721.69;130095;1257;114897;-67
2023/03/03 02:45:30;;;;;;;93.90;46.30;;;;;;;0.72;78.44;100724.33;130113;1261;114923;-66
2023/03/03 02:48:33;;;;;;;106.80;44.80;;;;;;;0.71;78.30;100732.59;130322;1257;115335;-67
2023/03/03 02:51:36;;;;;;;103.10;46.00;;;;;;;0.68;78.71;100738.75;130349;1254;114876;-68
2023/03/03 02:54:38;;;;;;;113.80;47.60;;;;;;;0.66;78.49;100746.32;130397;1258;128924;-69
2023/03/03 02:57:40;;;;;;;96.60;48.50;;;;;;;0.63;78.55;100755.64;130434;1257;114698;-67
2023/03/03 03:00:42;;;;;;;110.90;48.60;;;;;;;0.61;78.60;100762.31;130427;1253;114816;-67
2023/03/03 03:03:44;;;;;;;105.50;48.10;;;;;;;0.58;78.74;100761.95;130320;1253;114731;-67
2023/03/03 03:06:46;;;;;;;102.60;47.10;;;;;;;0.58;78.62;100760.04;130442;1256;114718;-67
2023/03/03 03:09:49;;;;;;;98.20;47.50;;;;;;;0.57;78.75;100756.52;130392;1256;114821;-68
2023/03/03 03:12:51;;;;;;;99.80;45.20;;;;;;;0.56;78.87;100752.13;130338;1254;114712;-68
2023/03/03 03:15:53;;;;;;;92.00;45.10;;;;;;;0.57;78.84;100751.95;130284;1256;114747;-67
2023/03/03 03:18:55;;;;;;;96.70;47.30;;;;;;;0.59;78.79;100748.95;130427;1254;114821;-69
2023/03/03 03:21:57;;;;;;;99.30;45.80;;;;;;;0.59;78.83;100748.77;129832;1259;115254;-69
2023/03/03 03:24:59;;;;;;;91.90;44.90;;;;;;;0.58;78.93;100733.32;130186;1253;115301;-66
2023/03/03 03:28:01;;;;;;;100.00;44.10;;;;;;;0.58;78.93;100729.62;130245;1257;115102;-68
2023/03/03 03:31:05;;;;;;;90.60;44.70;;;;;;;0.58;78.86;100730.84;130209;1254;115113;-67
2023/03/03 03:34:07;;;;;;;85.90;45.00;;;;;;;0.58;78.83;100715.55;129870;1261;116334;-66
2023/03/03 03:37:10;;;;;;;87.10;43.20;;;;;;;0.60;78.87;100715.56;130143;1257;115294;-67
2023/03/03 03:40:12;;;;;;;93.70;45.50;;;;;;;0.60;78.72;100715.38;130312;1268;114714;-66
2023/03/03 03:43:14;;;;;;;92.80;44.30;;;;;;;0.57;78.89;100710.65;130221;1258;114798;-67
2023/03/03 03:46:24;;;;;;;92.20;42.60;;;;;;;0.57;78.93;100719.61;131516;1256;114729;-68
2023/03/03 03:49:26;;;;;;;90.70;42.90;;;;;;;0.58;78.78;100726.29;130328;1256;114881;-67
2023/03/03 03:52:28;;;;;;;82.10;42.20;;;;;;;0.57;78.95;100725.06;130294;1254;115189;-67
2023/03/03 03:55:31;;;;;;;81.00;40.80;;;;;;;0.57;78.81;100727.88;130050;1256;114858;-68
2023/03/03 03:58:33;;;;;;;80.80;40.10;;;;;;;0.58;78.97;100734.02;130283;1275;115119;-67
2023/03/03 04:01:35;;;;;;;82.30;38.90;;;;;;;0.59;78.90;100730.67;130386;1256;114735;-66
2023/03/03 04:04:37;;;;;;;83.10;37.10;;;;;;;0.60;78.71;100740.34;130311;1256;115252;-67
2023/03/03 04:07:40;;;;;;;79.80;40.00;;;;;;;0.57;79.07;100744.40;130044;1256;114765;-67
2023/03/03 04:10:42;;;;;;;77.30;39.10;;;;;;;0.55;78.85;100750.89;130391;1256;114709;-67
2023/03/03 04:13:44;;;;;;;76.40;38.10;;;;;;;0.55;78.85;100752.48;130465;1254;114752;-68
2023/03/03 04:16:46;;;;;;;69.30;35.50;;;;;;;0.55;78.99;100749.84;130428;1256;115145;-65
2023/03/03 04:19:49;;;;;;;71.10;36.10;;;;;;;0.54;78.82;100758.80;130254;1257;128812;-67
2023/03/03 04:22:51;;;;;;;62.00;31.80;;;;;;;0.53;78.93;100765.84;130252;1257;114847;-67
2023/03/03 04:25:53;;;;;;;60.00;32.10;;;;;;;0.51;78.77;100763.20;130340;1256;114750;-69
2023/03/03 04:28:56;;;;;;;55.10;27.90;;;;;;;0.49;78.87;100768.30;130384;1269;114735;-68
2023/03/03 04:31:58;;;;;;;52.50;28.30;;;;;;;0.44;79.03;100766.02;130371;1256;114696;-67
2023/03/03 04:35:01;;;;;;;55.00;28.60;;;;;;;0.41;78.54;100764.09;130343;1264;114868;-67
2023/03/03 04:38:04;;;;;;;56.50;28.00;;;;;;;0.41;78.73;100776.05;130459;1269;114772;-66
2023/03/03 04:41:06;;;;;;;49.90;27.40;;;;;;;0.38;78.81;100777.45;130153;1259;128130;-66
2023/03/03 04:44:09;;;;;;;50.70;25.90;;;;;;;0.37;78.82;100776.04;130217;1255;114794;-67
2023/03/03 04:47:11;;;;;;;51.40;26.10;;;;;;;0.37;79.13;100776.55;130416;1256;114796;-67
2023/03/03 04:50:13;;;;;;;43.20;24.20;;;;;;;0.37;78.76;100777.27;130278;1256;114709;-67
2023/03/03 04:53:15;;;;;;;46.20;25.10;;;;;;;0.38;79.01;100775.50;130407;1256;114700;-68
2023/03/03 04:56:17;;;;;;;48.70;25.30;;;;;;;0.39;79.04;100776.21;130346;1254;115431;-66
2023/03/03 04:59:19;;;;;;;48.70;23.80;;;;;;;0.41;78.81;100772.15;130258;1257;114817;-66
2023/03/03 05:02:21;;;;;;;47.80;24.00;;;;;;;0.40;78.70;100766.02;130250;1256;114745;-67
2023/03/03 05:05:23;;;;;;;52.70;25.10;;;;;;;0.40;78.86;100767.60;130370;1256;114728;-68
2023/03/03 05:08:26;;;;;;;45.80;22.40;;;;;;;0.41;78.95;100772.17;129932;1262;115224;-66
2023/03/03 05:11:28;;;;;;;47.70;23.60;;;;;;;0.41;78.99;100761.98;130433;1276;115244;-66
2023/03/03 05:14:30;;;;;;;45.10;22.30;;;;;;;0.41;78.91;100755.30;130523;1254;114846;-67
2023/03/03 05:17:33;;;;;;;43.30;22.70;;;;;;;0.39;78.98;100755.48;130316;1272;114741;-67
2023/03/03 05:20:35;;;;;;;39.90;20.80;;;;;;;0.40;78.75;100759.88;130242;1253;115176;-66
2023/03/03 05:23:37;;;;;;;48.10;23.00;;;;;;;0.40;78.84;100762.33;130397;1267;114747;-66
2023/03/03 05:26:40;;;;;;;43.10;21.60;;;;;;;0.41;78.75;100767.26;130211;1271;129213;-68
2023/03/03 05:29:42;;;;;;;42.10;21.50;;;;;;;0.39;78.84;100760.75;130387;1256;114715;-68
2023/03/03 05:32:45;;;;;;;41.70;21.40;;;;;;;0.37;78.89;100756.35;130332;1257;114791;-68
2023/03/03 05:35:53;;;;;;;42.90;21.50;;;;;;;0.39;78.87;100753.90;130283;1253;114796;-66
2023/03/03 05:38:55;;;;;;;40.50;21.60;;;;;;;0.38;78.88;100745.98;130174;1257;114798;-67
2023/03/03 05:41:59;;;;;;;38.70;21.70;;;;;;;0.38;78.73;100747.73;130244;1256;114877;-70
2023/03/03 05:45:01;;;;;;;47.30;24.10;;;;;;;0.38;78.71;100756.35;130303;1256;114715;-69
2023/03/03 05:48:03;;;;;;;51.70;25.40;;;;;;;0.40;79.00;100757.94;129895;1260;114799;-68
2023/03/03 05:51:05;;;;;;;50.20;25.10;;;;;;;0.40;78.94;100762.86;130496;1269;114722;-68
2023/03/03 05:54:08;;;;;;;51.20;25.90;;;;;;;0.39;78.85;100764.27;130255;1256;114782;-67
2023/03/03 05:57:10;;;;;;;39.20;21.70;;;;;;;0.40;79.12;100768.66;130350;1258;114780;-68
2023/03/03 06:00:13;;;;;;;44.00;21.80;;;;;;;0.39;78.94;100771.12;130365;1256;114731;-68
2023/03/03 06:03:15;;;;;;;36.70;19.00;;;;;;;0.37;78.83;100768.30;130549;1254;127938;-68
2023/03/03 06:06:18;;;;;;;41.50;19.00;;;;;;;0.37;78.80;100769.89;130286;1259;114829;-66
2023/03/03 06:09:20;;;;;;;34.80;18.50;;;;;;;0.39;79.00;100764.96;130380;1256;114771;-69
2023/03/03 06:12:22;;;;;;;34.30;18.60;;;;;;;0.41;79.06;100765.31;130281;1259;114885;-70
2023/03/03 06:15:25;;;;;;;46.10;24.70;;;;;;;0.42;78.90;100771.30;130407;1256;114779;-69
2023/03/03 06:18:27;;;;;;;38.90;19.80;;;;;;;0.43;78.84;100773.21;130263;1254;114708;-66
2023/03/03 06:21:29;;;;;;;33.40;17.40;;;;;;;0.44;78.88;100782.70;130455;1253;115106;-69
2023/03/03 06:24:32;;;;;;;34.40;18.60;;;;;;;0.44;78.79;100795.89;129935;1256;126792;-68
2023/03/03 06:27:34;;;;;;;39.30;17.00;;;;;;;0.43;78.57;100797.46;130264;1267;114642;-67
2023/03/03 06:30:36;;;;;;;36.70;18.80;;;;;;;0.44;78.64;100802.39;130292;1257;115036;-67
2023/03/03 06:33:41;;;;;;;33.60;18.00;;;;;;;0.44;78.79;100805.55;130302;1256;114813;-68
2023/03/03 06:36:43;;;;;;;37.20;18.30;;;;;;;0.45;78.73;100805.02;130027;1260;114793;-70
2023/03/03 06:39:45;;;;;;;40.20;19.90;;;;;;;0.46;78.81;100801.69;130184;1259;114821;-71
2023/03/03 06:42:48;;;;;;;42.20;21.20;;;;;;;0.47;78.76;100796.23;130305;1276;114759;-68
2023/03/03 06:45:50;;;;;;;36.50;19.50;;;;;;;0.48;78.72;100796.07;130274;1254;114785;-68
2023/03/03 06:48:53;;;;;;;36.90;17.60;;;;;;;0.51;78.87;100789.91;130237;1256;115274;-68
2023/03/03 06:51:56;;;;;;;36.60;18.10;;;;;;;0.53;78.78;100796.77;130290;1261;114824;-70
2023/03/03 06:55:00;;;;;;;30.60;16.00;;;;;;;0.50;78.71;100807.66;130401;1256;114824;-68
2023/03/03 06:58:13;;;;;;;31.10;16.00;;;;;;;0.45;78.36;100806.09;130248;1257;115219;-68
2023/03/03 07:01:16;;;;;;;34.20;16.60;;;;;;;0.42;78.58;100806.08;130383;1259;129056;-68
2023/03/03 07:04:21;;;;;;;34.50;16.80;;;;;;;0.40;78.49;100816.63;130360;1256;114724;-66
2023/03/03 07:07:25;;;;;;;36.10;18.10;;;;;;;0.37;78.74;100820.48;130114;1262;115128;-69
2023/03/03 07:10:29;;;;;;;34.00;16.60;;;;;;;0.36;78.49;100821.88;130164;1256;114715;-68
2023/03/03 07:13:31;;;;;;;34.90;17.10;;;;;;;0.37;78.76;100828.04;130083;1262;116457;-67
2023/03/03 07:16:34;;;;;;;35.60;17.30;;;;;;;0.36;78.68;100834.71;129988;1276;114811;-69
2023/03/03 07:19:36;;;;;;;32.90;17.10;;;;;;;0.36;78.60;100841.91;130367;1256;114742;-67
2023/03/03 07:22:38;;;;;;;37.20;17.60;;;;;;;0.37;78.59;100840.86;130348;1256;114756;-68
2023/03/03 07:25:41;;;;;;;33.20;17.20;;;;;;;0.37;78.63;100850.89;130337;1256;114721;-68
2023/03/03 07:28:53;;;;;;;33.30;17.10;;;;;;;0.37;78.54;100845.27;130450;1254;114748;-67
2023/03/03 07:31:56;;;;;;;34.40;18.50;;;;;;;0.40;78.42;100839.81;129950;1262;114920;-70
2023/03/03 07:34:58;;;;;;;39.60;19.70;;;;;;;0.46;78.61;100836.65;130181;1262;127492;-67
2023/03/03 07:38:01;;;;;;;40.90;22.00;;;;;;;0.51;78.85;100832.45;130307;1256;114721;-67
2023/03/03 07:41:19;;;;;;;39.70;20.80;;;;;;;0.55;78.66;100827.52;130203;1254;115615;-69
2023/03/03 07:44:27;;;;;;;33.30;17.50;;;;;;;0.59;78.56;100830.50;129995;1259;114891;-68
2023/03/03 07:47:33;;;;;;;41.10;18.30;;;;;;;0.64;78.56;100822.95;130202;1259;114703;-67
2023/03/03 07:50:36;;;;;;;32.30;17.50;;;;;;;0.69;78.42;100830.16;130202;1260;128987;-67
2023/03/03 07:53:38;;;;;;;37.10;19.20;;;;;;;0.76;78.47;100840.87;130231;1259;115176;-68
2023/03/03 07:56:40;;;;;;;38.70;19.20;;;;;;;0.81;78.30;100839.12;130415;1259;114760;-68
2023/03/03 07:59:47;;;;;;;41.30;21.60;;;;;;;0.83;78.19;100838.94;130214;1259;114810;-67
2023/03/03 08:03:02;;;;;;;44.60;21.80;;;;;;;0.87;78.06;100826.63;129901;1254;114726;-67
2023/03/03 08:06:28;;;;;;;39.10;20.50;;;;;;;0.91;78.27;100826.79;130224;1277;114658;-67
2023/03/03 08:09:51;;;;;;;35.70;19.50;;;;;;;0.95;77.76;100829.26;130290;1259;128967;-68
2023/03/03 08:12:54;;;;;;;36.70;19.00;;;;;;;0.99;78.24;100830.48;130222;1254;115195;-68
2023/03/03 08:16:01;;;;;;;37.30;19.60;;;;;;;0.99;77.75;100833.29;130254;1254;114824;-68
2023/03/03 08:19:04;;;;;;;40.30;19.50;;;;;;;1.01;77.83;100831.35;130300;1254;114706;-67
2023/03/03 08:22:17;;;;;;;37.80;20.60;;;;;;;1.05;77.57;100833.11;130121;1256;114641;-67
2023/03/03 08:25:19;;;;;;;34.80;18.60;;;;;;;1.11;77.88;100825.35;130501;1256;128955;-66
2023/03/03 08:28:22;;;;;;;33.30;17.20;;;;;;;1.17;77.71;100820.58;130212;1272;114795;-67
2023/03/03 08:31:25;;;;;;;49.80;23.50;;;;;;;1.23;77.64;100813.52;130308;1272;114801;-70
2023/03/03 08:34:27;;;;;;;38.20;21.70;;;;;;;1.32;77.73;100809.11;130292;1254;114725;-67
2023/03/03 08:37:29;;;;;;;39.90;19.20;;;;;;;1.40;77.41;100816.13;130352;1256;114797;-67
2023/03/03 08:40:32;;;;;;;47.40;22.40;;;;;;;1.46;77.16;100821.91;130352;1256;114737;-69
2023/03/03 08:43:34;;;;;;;44.00;22.60;;;;;;;1.47;77.01;100821.20;130286;1253;114738;-67
2023/03/03 08:46:37;;;;;;;43.50;24.30;;;;;;;1.47;76.96;100824.02;130309;1256;114808;-69
2023/03/03 08:49:40;;;;;;;52.60;26.00;;;;;;;1.52;76.98;100835.08;130266;1259;114732;-69
2023/03/03 08:52:42;;;;;;;50.60;25.00;;;;;;;1.52;76.86;100846.01;130375;1256;114802;-68
2023/03/03 08:55:45;;;;;;;52.60;26.30;;;;;;;1.53;76.92;100844.42;130023;1260;115593;-69
2023/03/03 08:58:47;;;;;;;46.90;24.20;;;;;;;1.56;76.93;100840.70;130252;1260;114738;-67
2023/03/03 09:01:49;;;;;;;61.00;27.30;;;;;;;1.57;76.72;100847.94;130450;1266;114757;-67
2023/03/03 09:04:51;;;;;;;50.00;25.60;;;;;;;1.56;76.60;100846.89;130446;1267;114751;-68
2023/03/03 09:07:54;;;;;;;54.00;26.10;;;;;;;1.59;76.83;100856.02;130243;1276;115221;-66
2023/03/03 09:10:57;;;;;;;51.10;25.70;;;;;;;1.62;76.80;100860.23;130277;1257;114808;-67
2023/03/03 09:14:06;;;;;;;47.40;26.50;;;;;;;1.63;76.73;100856.55;130275;1255;115295;-67
2023/03/03 09:17:30;;;;;;;57.80;28.60;;;;;;;1.64;76.51;100856.88;130264;1254;115090;-67
2023/03/03 09:20:41;;;;;;;55.40;28.30;;;;;;;1.63;76.21;100860.92;130190;1256;128916;-67
2023/03/03 09:23:55;;;;;;;56.20;27.50;;;;;;;1.62;76.53;100863.40;130243;1267;115252;-67
2023/03/03 09:26:58;;;;;;;54.40;28.20;;;;;;;1.64;76.48;100867.98;130291;1256;115040;-67
2023/03/03 09:30:22;;;;;;;56.10;28.70;;;;;;;1.68;76.53;100869.70;129968;1263;114721;-68
2023/03/03 09:33:26;;;;;;;60.10;29.80;;;;;;;1.74;76.27;100874.63;129846;1276;114785;-67
2023/03/03 09:36:37;;;;;;;65.00;31.20;;;;;;;1.77;76.48;100876.36;129895;1260;127907;-68
2023/03/03 09:39:39;;;;;;;64.80;31.50;;;;;;;1.79;76.44;100872.14;130375;1254;115282;-69
2023/03/03 09:43:22;;;;;;;61.10;33.40;;;;;;;1.84;76.37;100869.64;130179;1275;115231;-67
2023/03/03 09:46:53;;;;;;;63.20;31.90;;;;;;;1.89;76.09;100872.98;130476;1260;114647;-68
2023/03/03 09:50:29;;;;;;;62.50;32.10;;;;;;;1.92;76.10;100873.65;130296;1257;114728;-67
2023/03/03 09:53:53;;;;;;;55.60;30.80;;;;;;;1.94;76.06;100875.77;130220;1266;129200;-68
2023/03/03 09:57:09;;;;;;;59.40;31.70;;;;;;;2.02;76.04;100877.34;130273;1254;114644;-68
2023/03/03 10:00:27;;;;;;;49.60;27.10;;;;;;;2.09;75.84;100881.15;130108;1254;115168;-68
2023/03/03 10:03:52;;;;;;;46.00;26.20;;;;;;;2.16;75.91;100878.11;130230;1257;114759;-68
2023/03/03 10:07:22;;;;;;;51.10;26.50;;;;;;;2.24;75.75;100877.38;130347;1256;114798;-68
2023/03/03 10:10:59;;;;;;;52.50;26.50;;;;;;;2.33;75.86;100876.43;130472;1266;129695;-68
2023/03/03 10:14:30;;;;;;;52.10;27.50;;;;;;;2.42;75.61;100874.44;130427;1264;115267;-68
2023/03/03 10:17:52;;;;;;;51.50;28.10;;;;;;;2.47;75.22;100870.71;130091;1262;114673;-70
2023/03/03 10:21:13;;;;;;;56.60;29.80;;;;;;;2.51;75.14;100873.67;130327;1260;114747;-67
2023/03/03 10:24:32;;;;;;;49.20;27.70;;;;;;;2.55;75.12;100874.54;129877;1257;114917;-67
2023/03/03 10:27:46;;;;;;;44.50;25.00;;;;;;;2.64;75.07;100872.35;129943;1264;127966;-68
2023/03/03 10:31:18;;;;;;;48.70;25.90;;;;;;;2.69;74.92;100871.60;130351;1263;115108;-69
2023/03/03 10:34:23;;;;;;;52.90;26.30;;;;;;;2.74;74.62;100867.86;130240;1276;114780;-67
2023/03/03 10:37:50;;;;;;;46.40;25.80;;;;;;;2.79;74.66;100869.06;129984;1262;115407;-67
2023/03/03 10:41:14;;;;;;;49.00;25.50;;;;;;;2.84;74.54;100866.53;130268;1256;114810;-67
2023/03/03 10:44:35;;;;;;;50.30;26.80;;;;;;;2.89;74.45;100865.62;130243;1261;128699;-68
2023/03/03 10:47:53;;;;;;;47.00;24.30;;;;;;;2.94;74.40;100867.34;130062;1256;116358;-68
2023/03/03 10:51:19;;;;;;;54.30;26.80;;;;;;;2.96;74.11;100866.45;129915;1254;114882;-67
2023/03/03 10:54:40;;;;;;;50.20;25.50;;;;;;;2.96;74.05;100864.86;130233;1256;114702;-66
2023/03/03 10:57:49;;;;;;;44.30;24.80;;;;;;;3.00;74.03;100861.81;130265;1267;114642;-67
2023/03/03 11:00:54;;;;;;;53.20;28.40;;;;;;;3.00;73.88;100853.87;130262;1257;128992;-68
2023/03/03 11:04:25;;;;;;;55.10;28.00;;;;;;;3.00;73.71;100846.81;130319;1276;115175;-69
2023/03/03 11:07:33;;;;;;;52.80;29.40;;;;;;;3.02;73.67;100839.20;130225;1256;114760;-67
2023/03/03 11:11:10;;;;;;;60.20;30.50;;;;;;;3.07;73.75;100834.94;130270;1257;114824;-68
2023/03/03 11:14:17;;;;;;;55.20;27.90;;;;;;;3.13;73.90;100831.17;129389;1262;114866;-68
2023/03/03 11:17:28;;;;;;;51.40;27.20;;;;;;;3.17;73.68;100836.41;129372;1268;129035;-68
2023/03/03 11:20:40;;;;;;;52.30;27.60;;;;;;;3.22;73.40;100837.07;129521;1266;115212;-69
2023/03/03 11:24:00;;;;;;;50.40;28.00;;;;;;;3.23;73.33;100836.36;129499;1268;114979;-67
2023/03/03 11:27:21;;;;;;;58.80;32.40;;;;;;;3.28;73.47;100837.17;129258;1273;114807;-67
2023/03/03 11:30:38;;;;;;;49.90;25.90;;;;;;;3.39;73.55;100829.29;129398;1262;114893;-68
2023/03/03 11:34:17;;;;;;;51.10;26.40;;;;;;;3.47;73.07;100822.84;129276;1284;128053;-68
2023/03/03 11:37:28;;;;;;;47.30;26.50;;;;;;;3.50;72.85;100822.62;129197;1284;115422;-68
2023/03/03 11:40:55;;;;;;;45.50;25.20;;;;;;;3.56;72.93;100824.50;129238;1270;114899;-68
2023/03/03 11:44:01;;;;;;;41.80;24.60;;;;;;;3.66;72.88;100823.49;129384;1274;114934;-68
2023/03/03 11:47:05;;;;;;;45.10;23.80;;;;;;;3.71;72.67;100825.21;129446;1276;115189;-67
2023/03/03 11:50:16;;;;;;;43.30;22.80;;;;;;;3.74;72.33;100823.91;129639;1264;128272;-68
2023/03/03 11:53:27;;;;;;;43.10;23.10;;;;;;;3.73;72.30;100819.88;130073;1260;115238;-67
2023/03/03 11:56:41;;;;;;;37.20;21.50;;;;;;;3.69;72.07;100816.23;130282;1259;115357;-68
2023/03/03 11:59:53;;;;;;;35.40;19.40;;;;;;;3.62;72.03;100817.02;130183;1260;114735;-68
2023/03/03 12:03:09;;;;;;;41.70;22.70;;;;;;;3.65;72.33;100816.27;130128;1278;114854;-68
2023/03/03 12:06:20;;;;;;;36.40;21.40;;;;;;;3.68;71.96;100816.59;129976;1260;126769;-67
2023/03/03 12:09:34;;;;;;;39.90;22.00;;;;;;;3.67;71.99;100818.90;129978;1263;115264;-68
2023/03/03 12:12:45;;;;;;;36.10;21.20;;;;;;;3.68;71.96;100811.80;130291;1264;114785;-68
2023/03/03 12:16:24;;;;;;;37.30;20.10;;;;;;;3.70;71.88;100806.67;130032;1263;115161;-68
2023/03/03 12:20:02;;;;;;;79.40;41.50;;;;;;;3.72;71.76;100801.70;130312;1264;114753;-68
2023/03/03 12:23:40;;;;;;;66.80;37.80;;;;;;;3.71;71.68;100799.77;129685;1266;129888;-68
2023/03/03 12:26:48;;;;;;;39.70;23.70;;;;;;;3.72;71.46;100804.71;128766;1274;116684;-68
2023/03/03 12:30:17;;;;;;;48.90;30.70;;;;;;;3.71;71.43;100806.67;128992;1273;114770;-68
2023/03/03 12:33:36;;;;;;;47.40;26.70;;;;;;;3.73;71.36;100803.10;128848;1272;114945;-68
2023/03/03 12:36:58;;;;;;;44.80;23.50;;;;;;;3.77;71.27;100799.33;128917;1292;114940;-68
2023/03/03 12:40:30;;;;;;;39.60;21.50;;;;;;;3.76;71.22;100793.52;128847;1282;127622;-69
2023/03/03 12:43:42;;;;;;;46.40;26.20;;;;;;;3.81;71.44;100794.85;128813;1291;115402;-68
2023/03/03 12:47:02;;;;;;;55.80;31.10;;;;;;;3.83;71.05;100798.72;128828;1285;115028;-68
2023/03/03 12:50:10;;;;;;;40.50;22.00;;;;;;;3.83;71.25;100794.48;129001;1273;114898;-68
2023/03/03 12:53:39;;;;;;;36.20;18.40;;;;;;;3.86;71.10;100790.21;128901;1292;115043;-68
2023/03/03 12:56:50;;;;;;;31.70;19.00;;;;;;;3.86;70.90;100784.73;128909;1274;127946;-68
2023/03/03 13:00:01;;;;;;;39.60;20.20;;;;;;;3.85;70.70;100786.51;129276;1268;114885;-67
2023/03/03 13:03:14;;;;;;;36.30;19.50;;;;;;;3.83;70.69;100788.13;129409;1269;114918;-67
2023/03/03 13:06:26;;;;;;;32.70;20.00;;;;;;;3.81;70.83;100784.98;130180;1260;114790;-68
2023/03/03 13:09:40;;;;;;;48.40;25.60;;;;;;;3.78;70.47;100787.30;130100;1268;115052;-68
2023/03/03 13:12:51;;;;;;;47.90;25.10;;;;;;;3.78;70.73;100784.30;130129;1267;128548;-67
2023/03/03 13:16:11;;;;;;;45.10;22.40;;;;;;;3.80;70.64;100782.52;130180;1257;116383;-68
2023/03/03 13:19:25;;;;;;;52.30;26.90;;;;;;;3.81;70.61;100785.49;130244;1260;114732;-68
2023/03/03 13:22:36;;;;;;;47.40;25.20;;;;;;;3.83;70.47;100789.71;129879;1254;114971;-68
2023/03/03 13:25:38;;;;;;;32.10;18.20;;;;;;;3.87;70.63;100788.42;130001;1277;247503;-67
2023/03/03 13:29:09;;;;;;;40.10;22.60;;;;;;;3.87;70.51;100790.89;130169;1264;114661;-68
2023/03/03 13:32:19;;;;;;;41.90;24.40;;;;;;;3.90;70.43;100786.78;130198;1277;115221;-69
2023/03/03 13:36:06;;;;;;;30.30;18.30;;;;;;;3.89;70.50;100783.27;130093;1257;115017;-69
2023/03/03 13:39:21;;;;;;;37.70;21.40;;;;;;;3.84;70.34;100779.27;130146;1267;114792;-70
2023/03/03 13:42:28;;;;;;;47.50;25.50;;;;;;;3.81;70.28;100784.27;130219;1277;115109;-68
2023/03/03 13:45:52;;;;;;;42.80;24.90;;;;;;;3.80;70.49;100780.73;130180;1266;129824;-70
2023/03/03 13:49:00;;;;;;;35.40;20.00;;;;;;;3.82;70.36;100780.17;129988;1276;115227;-68
2023/03/03 13:52:06;;;;;;;35.40;20.70;;;;;;;3.82;70.29;100776.29;130270;1258;114718;-67
2023/03/03 13:55:16;;;;;;;33.20;18.90;;;;;;;3.81;70.12;100775.95;130310;1276;114814;-68
2023/03/03 13:58:25;;;;;;;34.50;18.90;;;;;;;3.81;70.05;100771.36;130324;1257;115109;-69
2023/03/03 14:01:50;;;;;;;32.10;18.70;;;;;;;3.83;70.19;100765.15;129835;1258;127921;-69
2023/03/03 14:05:04;;;;;;;32.70;18.60;;;;;;;3.82;69.74;100758.80;130260;1267;114764;-69